sensor_id;sensor_type;location;lat;lon;timestamp;P1;durP1;ratioP1;P2;durP2;ratioP2
12385;SDS011;6257;57.634;18.310;2022-09-09T00:00:59;2.10;;;1.00;;
12385;SDS011;6257;57.634;18.310;2022-09-09T00:03:35;1.27;;;1.17;;
12385;SDS011;6257;57.634;18.310;2022-09-09T00:06:12;3.63;;;1.10;;
12385;SDS011;6257;57.634;18.310;2022-09-09T00:08:50;2.33;;;0.90;;
12385;SDS011;6257;57.634;18.310;2022-09-09T00:11:29;2.90;;;0.90;;
12385;SDS011;6257;57.634;18.310;2022-09-09T00:14:06;2.17;;;0.97;;
12385;SDS011;6257;57.634;18.310;2022-09-09T00:16:38;1.77;;;0.80;;
12385;SDS011;6257;57.634;18.310;2022-09-09T00:19:12;2.87;;;1.03;;
12385;SDS011;6257;57.634;18.310;2022-09-09T00:21:47;3.97;;;1.13;;
12385;SDS011;6257;57.634;18.310;2022-09-09T00:24:24;3.60;;;1.00;;
12385;SDS011;6257;57.634;18.310;2022-09-09T00:26:56;1.60;;;0.93;;
12385;SDS011;6257;57.634;18.310;2022-09-09T00:29:31;2.50;;;1.20;;
12385;SDS011;6257;57.634;18.310;2022-09-09T00:32:07;2.20;;;1.23;;
12385;SDS011;6257;57.634;18.310;2022-09-09T00:34:46;3.43;;;1.00;;
12385;SDS011;6257;57.634;18.310;2022-09-09T00:37:15;2.33;;;1.13;;
12385;SDS011;6257;57.634;18.310;2022-09-09T00:39:44;4.07;;;1.10;;
12385;SDS011;6257;57.634;18.310;2022-09-09T00:42:14;1.67;;;1.03;;
12385;SDS011;6257;57.634;18.310;2022-09-09T00:44:55;1.50;;;0.90;;
12385;SDS011;6257;57.634;18.310;2022-09-09T00:47:30;3.73;;;1.10;;
12385;SDS011;6257;57.634;18.310;2022-09-09T00:50:10;5.33;;;1.50;;
12385;SDS011;6257;57.634;18.310;2022-09-09T00:52:53;1.30;;;1.00;;
12385;SDS011;6257;57.634;18.310;2022-09-09T00:55:32;4.40;;;1.20;;
12385;SDS011;6257;57.634;18.310;2022-09-09T00:58:06;1.53;;;1.10;;
12385;SDS011;6257;57.634;18.310;2022-09-09T01:00:38;1.40;;;1.10;;
12385;SDS011;6257;57.634;18.310;2022-09-09T01:03:19;1.30;;;1.00;;
12385;SDS011;6257;57.634;18.310;2022-09-09T01:05:51;3.23;;;1.00;;
12385;SDS011;6257;57.634;18.310;2022-09-09T01:08:30;2.00;;;1.00;;
12385;SDS011;6257;57.634;18.310;2022-09-09T01:11:32;3.60;;;1.20;;
12385;SDS011;6257;57.634;18.310;2022-09-09T01:14:11;2.60;;;0.97;;
12385;SDS011;6257;57.634;18.310;2022-09-09T01:16:48;1.53;;;1.20;;
12385;SDS011;6257;57.634;18.310;2022-09-09T01:19:18;2.57;;;1.20;;
12385;SDS011;6257;57.634;18.310;2022-09-09T01:21:54;3.20;;;1.03;;
12385;SDS011;6257;57.634;18.310;2022-09-09T01:24:29;2.67;;;1.00;;
12385;SDS011;6257;57.634;18.310;2022-09-09T01:27:04;3.43;;;1.20;;
12385;SDS011;6257;57.634;18.310;2022-09-09T01:29:32;1.87;;;1.00;;
12385;SDS011;6257;57.634;18.310;2022-09-09T01:32:00;1.63;;;0.90;;
12385;SDS011;6257;57.634;18.310;2022-09-09T01:34:31;2.10;;;1.07;;
12385;SDS011;6257;57.634;18.310;2022-09-09T01:37:04;1.90;;;1.10;;
12385;SDS011;6257;57.634;18.310;2022-09-09T01:39:33;1.37;;;0.93;;
12385;SDS011;6257;57.634;18.310;2022-09-09T01:42:03;3.13;;;1.10;;
12385;SDS011;6257;57.634;18.310;2022-09-09T01:44:33;1.70;;;1.10;;
12385;SDS011;6257;57.634;18.310;2022-09-09T01:47:02;4.17;;;1.30;;
12385;SDS011;6257;57.634;18.310;2022-09-09T01:49:30;2.00;;;1.00;;
12385;SDS011;6257;57.634;18.310;2022-09-09T01:51:58;1.40;;;0.90;;
12385;SDS011;6257;57.634;18.310;2022-09-09T01:54:26;2.30;;;1.20;;
12385;SDS011;6257;57.634;18.310;2022-09-09T01:56:58;2.70;;;1.20;;
12385;SDS011;6257;57.634;18.310;2022-09-09T01:59:44;2.23;;;1.07;;
12385;SDS011;6257;57.634;18.310;2022-09-09T02:02:17;1.40;;;1.10;;
12385;SDS011;6257;57.634;18.310;2022-09-09T02:04:46;3.33;;;1.20;;
12385;SDS011;6257;57.634;18.310;2022-09-09T02:07:19;3.73;;;1.30;;
12385;SDS011;6257;57.634;18.310;2022-09-09T02:09:56;2.43;;;1.20;;
12385;SDS011;6257;57.634;18.310;2022-09-09T02:12:25;1.40;;;1.20;;
12385;SDS011;6257;57.634;18.310;2022-09-09T02:14:58;3.10;;;1.37;;
12385;SDS011;6257;57.634;18.310;2022-09-09T02:17:30;3.23;;;1.13;;
12385;SDS011;6257;57.634;18.310;2022-09-09T02:20:03;1.57;;;1.20;;
12385;SDS011;6257;57.634;18.310;2022-09-09T02:22:32;2.90;;;1.23;;
12385;SDS011;6257;57.634;18.310;2022-09-09T02:25:02;2.40;;;1.00;;
12385;SDS011;6257;57.634;18.310;2022-09-09T02:27:31;1.53;;;1.00;;
12385;SDS011;6257;57.634;18.310;2022-09-09T02:30:00;2.20;;;0.90;;
12385;SDS011;6257;57.634;18.310;2022-09-09T02:32:29;2.63;;;1.30;;
12385;SDS011;6257;57.634;18.310;2022-09-09T02:35:00;2.47;;;1.30;;
12385;SDS011;6257;57.634;18.310;2022-09-09T02:37:33;2.83;;;1.30;;
12385;SDS011;6257;57.634;18.310;2022-09-09T02:40:03;1.50;;;1.13;;
12385;SDS011;6257;57.634;18.310;2022-09-09T02:42:31;3.27;;;1.30;;
12385;SDS011;6257;57.634;18.310;2022-09-09T02:45:06;1.30;;;1.20;;
12385;SDS011;6257;57.634;18.310;2022-09-09T02:47:34;1.70;;;1.20;;
12385;SDS011;6257;57.634;18.310;2022-09-09T02:50:08;4.53;;;1.27;;
12385;SDS011;6257;57.634;18.310;2022-09-09T02:52:44;5.87;;;1.40;;
12385;SDS011;6257;57.634;18.310;2022-09-09T02:55:22;1.60;;;1.00;;
12385;SDS011;6257;57.634;18.310;2022-09-09T02:57:55;2.00;;;1.17;;
12385;SDS011;6257;57.634;18.310;2022-09-09T03:00:25;2.53;;;1.27;;
12385;SDS011;6257;57.634;18.310;2022-09-09T03:02:54;3.90;;;1.30;;
12385;SDS011;6257;57.634;18.310;2022-09-09T03:05:22;3.27;;;1.30;;
12385;SDS011;6257;57.634;18.310;2022-09-09T03:07:49;2.60;;;1.13;;
12385;SDS011;6257;57.634;18.310;2022-09-09T03:10:16;1.97;;;1.20;;
12385;SDS011;6257;57.634;18.310;2022-09-09T03:12:43;1.20;;;1.07;;
12385;SDS011;6257;57.634;18.310;2022-09-09T03:15:10;4.20;;;1.30;;
12385;SDS011;6257;57.634;18.310;2022-09-09T03:17:40;3.80;;;1.40;;
12385;SDS011;6257;57.634;18.310;2022-09-09T03:20:07;4.57;;;1.70;;
12385;SDS011;6257;57.634;18.310;2022-09-09T03:22:34;2.47;;;1.20;;
12385;SDS011;6257;57.634;18.310;2022-09-09T03:25:02;1.80;;;1.10;;
12385;SDS011;6257;57.634;18.310;2022-09-09T03:27:29;3.90;;;1.27;;
12385;SDS011;6257;57.634;18.310;2022-09-09T03:29:56;2.73;;;1.20;;
12385;SDS011;6257;57.634;18.310;2022-09-09T03:32:23;4.70;;;1.60;;
12385;SDS011;6257;57.634;18.310;2022-09-09T03:34:52;1.87;;;1.40;;
12385;SDS011;6257;57.634;18.310;2022-09-09T03:37:19;2.57;;;1.30;;
12385;SDS011;6257;57.634;18.310;2022-09-09T03:39:47;3.80;;;1.73;;
12385;SDS011;6257;57.634;18.310;2022-09-09T03:42:15;3.63;;;1.50;;
12385;SDS011;6257;57.634;18.310;2022-09-09T03:44:44;1.70;;;1.10;;
12385;SDS011;6257;57.634;18.310;2022-09-09T03:47:15;2.37;;;1.10;;
12385;SDS011;6257;57.634;18.310;2022-09-09T03:49:43;3.90;;;1.30;;
12385;SDS011;6257;57.634;18.310;2022-09-09T03:52:12;1.80;;;1.10;;
12385;SDS011;6257;57.634;18.310;2022-09-09T03:54:39;2.53;;;1.30;;
12385;SDS011;6257;57.634;18.310;2022-09-09T03:57:07;5.60;;;1.30;;
12385;SDS011;6257;57.634;18.310;2022-09-09T03:59:35;2.00;;;1.13;;
12385;SDS011;6257;57.634;18.310;2022-09-09T04:02:02;4.30;;;1.40;;
12385;SDS011;6257;57.634;18.310;2022-09-09T04:04:29;3.43;;;1.23;;
12385;SDS011;6257;57.634;18.310;2022-09-09T04:06:56;3.23;;;1.30;;
12385;SDS011;6257;57.634;18.310;2022-09-09T04:09:24;1.70;;;1.30;;
12385;SDS011;6257;57.634;18.310;2022-09-09T04:11:51;2.73;;;1.30;;
12385;SDS011;6257;57.634;18.310;2022-09-09T04:14:20;2.47;;;1.53;;
12385;SDS011;6257;57.634;18.310;2022-09-09T04:16:47;2.07;;;1.27;;
12385;SDS011;6257;57.634;18.310;2022-09-09T04:19:14;2.17;;;1.40;;
12385;SDS011;6257;57.634;18.310;2022-09-09T04:21:41;3.43;;;1.40;;
12385;SDS011;6257;57.634;18.310;2022-09-09T04:24:08;2.40;;;1.40;;
12385;SDS011;6257;57.634;18.310;2022-09-09T04:26:37;1.33;;;1.23;;
12385;SDS011;6257;57.634;18.310;2022-09-09T04:29:04;2.93;;;1.70;;
12385;SDS011;6257;57.634;18.310;2022-09-09T04:31:32;3.40;;;1.40;;
12385;SDS011;6257;57.634;18.310;2022-09-09T04:33:59;2.93;;;1.40;;
12385;SDS011;6257;57.634;18.310;2022-09-09T04:36:30;2.93;;;1.60;;
12385;SDS011;6257;57.634;18.310;2022-09-09T04:38:58;2.53;;;1.50;;
12385;SDS011;6257;57.634;18.310;2022-09-09T04:41:26;3.03;;;1.30;;
12385;SDS011;6257;57.634;18.310;2022-09-09T04:43:55;3.03;;;1.70;;
12385;SDS011;6257;57.634;18.310;2022-09-09T04:46:22;3.67;;;1.40;;
12385;SDS011;6257;57.634;18.310;2022-09-09T04:48:49;1.73;;;1.50;;
12385;SDS011;6257;57.634;18.310;2022-09-09T04:51:17;2.50;;;1.63;;
12385;SDS011;6257;57.634;18.310;2022-09-09T04:53:45;5.10;;;1.40;;
12385;SDS011;6257;57.634;18.310;2022-09-09T04:56:14;4.97;;;1.53;;
12385;SDS011;6257;57.634;18.310;2022-09-09T04:58:42;3.20;;;1.40;;
12385;SDS011;6257;57.634;18.310;2022-09-09T05:01:10;2.90;;;1.50;;
12385;SDS011;6257;57.634;18.310;2022-09-09T05:03:39;2.50;;;1.30;;
12385;SDS011;6257;57.634;18.310;2022-09-09T05:06:07;3.13;;;1.50;;
12385;SDS011;6257;57.634;18.310;2022-09-09T05:08:35;3.07;;;1.20;;
12385;SDS011;6257;57.634;18.310;2022-09-09T05:11:03;6.83;;;1.90;;
12385;SDS011;6257;57.634;18.310;2022-09-09T05:13:37;3.63;;;1.40;;
12385;SDS011;6257;57.634;18.310;2022-09-09T05:16:05;6.33;;;1.53;;
12385;SDS011;6257;57.634;18.310;2022-09-09T05:18:33;2.47;;;1.17;;
12385;SDS011;6257;57.634;18.310;2022-09-09T05:21:00;1.70;;;1.13;;
12385;SDS011;6257;57.634;18.310;2022-09-09T05:23:27;2.57;;;1.43;;
12385;SDS011;6257;57.634;18.310;2022-09-09T05:25:57;2.60;;;1.40;;
12385;SDS011;6257;57.634;18.310;2022-09-09T05:28:25;2.30;;;1.43;;
12385;SDS011;6257;57.634;18.310;2022-09-09T05:30:55;2.80;;;1.53;;
12385;SDS011;6257;57.634;18.310;2022-09-09T05:33:24;4.53;;;1.50;;
12385;SDS011;6257;57.634;18.310;2022-09-09T05:35:57;4.50;;;1.37;;
12385;SDS011;6257;57.634;18.310;2022-09-09T05:38:24;2.30;;;1.33;;
12385;SDS011;6257;57.634;18.310;2022-09-09T05:40:52;3.83;;;1.30;;
12385;SDS011;6257;57.634;18.310;2022-09-09T05:43:19;2.67;;;1.47;;
12385;SDS011;6257;57.634;18.310;2022-09-09T05:45:46;2.20;;;1.33;;
12385;SDS011;6257;57.634;18.310;2022-09-09T05:48:13;4.23;;;1.43;;
12385;SDS011;6257;57.634;18.310;2022-09-09T05:50:41;3.80;;;1.23;;
12385;SDS011;6257;57.634;18.310;2022-09-09T05:53:11;4.70;;;1.50;;
12385;SDS011;6257;57.634;18.310;2022-09-09T05:55:38;1.90;;;1.10;;
12385;SDS011;6257;57.634;18.310;2022-09-09T05:58:05;3.40;;;1.20;;
12385;SDS011;6257;57.634;18.310;2022-09-09T06:00:32;5.20;;;1.57;;
12385;SDS011;6257;57.634;18.310;2022-09-09T06:02:59;3.50;;;1.33;;
12385;SDS011;6257;57.634;18.310;2022-09-09T06:05:26;2.67;;;1.30;;
12385;SDS011;6257;57.634;18.310;2022-09-09T06:07:53;1.80;;;1.33;;
12385;SDS011;6257;57.634;18.310;2022-09-09T06:10:22;2.43;;;1.40;;
12385;SDS011;6257;57.634;18.310;2022-09-09T06:12:51;4.27;;;1.33;;
12385;SDS011;6257;57.634;18.310;2022-09-09T06:15:19;4.13;;;1.30;;
12385;SDS011;6257;57.634;18.310;2022-09-09T06:17:46;2.20;;;1.10;;
12385;SDS011;6257;57.634;18.310;2022-09-09T06:20:14;1.60;;;0.80;;
12385;SDS011;6257;57.634;18.310;2022-09-09T06:22:41;2.60;;;1.00;;
12385;SDS011;6257;57.634;18.310;2022-09-09T06:25:11;3.13;;;1.27;;
12385;SDS011;6257;57.634;18.310;2022-09-09T06:27:39;2.13;;;1.10;;
12385;SDS011;6257;57.634;18.310;2022-09-09T06:30:07;2.60;;;1.33;;
12385;SDS011;6257;57.634;18.310;2022-09-09T06:32:36;2.97;;;1.30;;
12385;SDS011;6257;57.634;18.310;2022-09-09T06:35:04;2.27;;;1.00;;
12385;SDS011;6257;57.634;18.310;2022-09-09T06:37:32;1.80;;;1.13;;
12385;SDS011;6257;57.634;18.310;2022-09-09T06:39:59;2.90;;;1.30;;
12385;SDS011;6257;57.634;18.310;2022-09-09T06:42:27;4.57;;;1.83;;
12385;SDS011;6257;57.634;18.310;2022-09-09T06:44:55;2.97;;;1.17;;
12385;SDS011;6257;57.634;18.310;2022-09-09T06:47:22;2.20;;;1.23;;
12385;SDS011;6257;57.634;18.310;2022-09-09T06:49:49;2.43;;;1.13;;
12385;SDS011;6257;57.634;18.310;2022-09-09T06:52:16;2.03;;;1.40;;
12385;SDS011;6257;57.634;18.310;2022-09-09T06:54:44;2.77;;;1.37;;
12385;SDS011;6257;57.634;18.310;2022-09-09T06:57:11;3.60;;;1.30;;
12385;SDS011;6257;57.634;18.310;2022-09-09T06:59:41;2.43;;;1.40;;
12385;SDS011;6257;57.634;18.310;2022-09-09T07:02:09;3.27;;;1.30;;
12385;SDS011;6257;57.634;18.310;2022-09-09T07:04:36;3.17;;;1.63;;
12385;SDS011;6257;57.634;18.310;2022-09-09T07:07:03;2.60;;;1.10;;
12385;SDS011;6257;57.634;18.310;2022-09-09T07:09:30;2.03;;;1.30;;
12385;SDS011;6257;57.634;18.310;2022-09-09T07:11:59;2.37;;;1.30;;
12385;SDS011;6257;57.634;18.310;2022-09-09T07:14:26;1.63;;;1.30;;
12385;SDS011;6257;57.634;18.310;2022-09-09T07:16:53;2.47;;;1.33;;
12385;SDS011;6257;57.634;18.310;2022-09-09T07:19:21;4.20;;;1.40;;
12385;SDS011;6257;57.634;18.310;2022-09-09T07:21:48;2.70;;;1.20;;
12385;SDS011;6257;57.634;18.310;2022-09-09T07:24:15;2.97;;;1.23;;
12385;SDS011;6257;57.634;18.310;2022-09-09T07:26:42;2.33;;;1.50;;
12385;SDS011;6257;57.634;18.310;2022-09-09T07:29:10;3.37;;;1.70;;
12385;SDS011;6257;57.634;18.310;2022-09-09T07:31:39;4.17;;;1.93;;
12385;SDS011;6257;57.634;18.310;2022-09-09T07:34:06;5.77;;;1.33;;
12385;SDS011;6257;57.634;18.310;2022-09-09T07:36:35;4.93;;;1.23;;
12385;SDS011;6257;57.634;18.310;2022-09-09T07:39:05;3.93;;;1.40;;
12385;SDS011;6257;57.634;18.310;2022-09-09T07:41:34;3.73;;;1.20;;
12385;SDS011;6257;57.634;18.310;2022-09-09T07:44:04;1.97;;;1.23;;
12385;SDS011;6257;57.634;18.310;2022-09-09T07:46:32;2.07;;;1.33;;
12385;SDS011;6257;57.634;18.310;2022-09-09T07:49:00;2.70;;;1.60;;
12385;SDS011;6257;57.634;18.310;2022-09-09T07:51:28;3.03;;;1.30;;
12385;SDS011;6257;57.634;18.310;2022-09-09T07:53:58;4.20;;;1.40;;
12385;SDS011;6257;57.634;18.310;2022-09-09T07:56:27;2.57;;;1.50;;
12385;SDS011;6257;57.634;18.310;2022-09-09T07:58:55;3.93;;;1.40;;
12385;SDS011;6257;57.634;18.310;2022-09-09T08:01:24;4.27;;;1.40;;
12385;SDS011;6257;57.634;18.310;2022-09-09T08:03:53;4.83;;;1.50;;
12385;SDS011;6257;57.634;18.310;2022-09-09T08:06:20;3.50;;;1.30;;
12385;SDS011;6257;57.634;18.310;2022-09-09T08:08:50;5.43;;;1.63;;
12385;SDS011;6257;57.634;18.310;2022-09-09T08:11:19;6.43;;;1.63;;
12385;SDS011;6257;57.634;18.310;2022-09-09T08:13:49;1.93;;;1.30;;
12385;SDS011;6257;57.634;18.310;2022-09-09T08:16:18;3.87;;;1.40;;
12385;SDS011;6257;57.634;18.310;2022-09-09T08:18:47;5.93;;;1.80;;
12385;SDS011;6257;57.634;18.310;2022-09-09T08:21:15;2.60;;;1.17;;
12385;SDS011;6257;57.634;18.310;2022-09-09T08:23:44;3.60;;;1.40;;
12385;SDS011;6257;57.634;18.310;2022-09-09T08:26:13;2.30;;;1.03;;
12385;SDS011;6257;57.634;18.310;2022-09-09T08:28:43;4.57;;;1.23;;
12385;SDS011;6257;57.634;18.310;2022-09-09T08:31:11;4.67;;;1.07;;
12385;SDS011;6257;57.634;18.310;2022-09-09T08:33:39;3.27;;;1.20;;
12385;SDS011;6257;57.634;18.310;2022-09-09T08:36:08;2.67;;;1.27;;
12385;SDS011;6257;57.634;18.310;2022-09-09T08:38:37;3.23;;;1.20;;
12385;SDS011;6257;57.634;18.310;2022-09-09T08:41:19;3.50;;;1.20;;
12385;SDS011;6257;57.634;18.310;2022-09-09T08:44:10;2.20;;;1.27;;
12385;SDS011;6257;57.634;18.310;2022-09-09T08:46:44;2.90;;;1.30;;
12385;SDS011;6257;57.634;18.310;2022-09-09T08:49:18;2.00;;;1.37;;
12385;SDS011;6257;57.634;18.310;2022-09-09T08:51:56;3.73;;;1.50;;
12385;SDS011;6257;57.634;18.310;2022-09-09T08:54:23;2.90;;;1.57;;
12385;SDS011;6257;57.634;18.310;2022-09-09T08:56:58;4.33;;;1.30;;
12385;SDS011;6257;57.634;18.310;2022-09-09T08:59:27;2.07;;;1.20;;
12385;SDS011;6257;57.634;18.310;2022-09-09T09:01:56;4.90;;;1.50;;
12385;SDS011;6257;57.634;18.310;2022-09-09T09:04:33;4.43;;;1.30;;
12385;SDS011;6257;57.634;18.310;2022-09-09T09:07:13;4.27;;;1.40;;
12385;SDS011;6257;57.634;18.310;2022-09-09T09:09:51;2.90;;;1.37;;
12385;SDS011;6257;57.634;18.310;2022-09-09T09:12:25;1.50;;;1.20;;
12385;SDS011;6257;57.634;18.310;2022-09-09T09:14:57;3.87;;;1.30;;
12385;SDS011;6257;57.634;18.310;2022-09-09T09:17:26;2.73;;;1.60;;
12385;SDS011;6257;57.634;18.310;2022-09-09T09:19:58;4.73;;;1.53;;
12385;SDS011;6257;57.634;18.310;2022-09-09T09:22:26;3.03;;;1.20;;
12385;SDS011;6257;57.634;18.310;2022-09-09T09:25:02;4.07;;;1.30;;
12385;SDS011;6257;57.634;18.310;2022-09-09T09:27:40;1.63;;;1.13;;
12385;SDS011;6257;57.634;18.310;2022-09-09T09:30:14;3.00;;;1.10;;
12385;SDS011;6257;57.634;18.310;2022-09-09T09:32:49;3.80;;;1.20;;
12385;SDS011;6257;57.634;18.310;2022-09-09T09:35:19;4.10;;;1.43;;
12385;SDS011;6257;57.634;18.310;2022-09-09T09:37:46;2.47;;;1.37;;
12385;SDS011;6257;57.634;18.310;2022-09-09T09:40:14;4.93;;;1.47;;
12385;SDS011;6257;57.634;18.310;2022-09-09T09:42:48;2.20;;;1.10;;
12385;SDS011;6257;57.634;18.310;2022-09-09T09:45:20;4.77;;;1.20;;
12385;SDS011;6257;57.634;18.310;2022-09-09T09:47:57;5.43;;;1.10;;
12385;SDS011;6257;57.634;18.310;2022-09-09T09:50:27;3.10;;;1.20;;
12385;SDS011;6257;57.634;18.310;2022-09-09T09:52:54;2.77;;;1.40;;
12385;SDS011;6257;57.634;18.310;2022-09-09T09:55:23;2.90;;;1.23;;
12385;SDS011;6257;57.634;18.310;2022-09-09T09:57:50;3.27;;;1.13;;
12385;SDS011;6257;57.634;18.310;2022-09-09T10:00:20;2.30;;;1.10;;
12385;SDS011;6257;57.634;18.310;2022-09-09T10:02:48;4.13;;;1.07;;
12385;SDS011;6257;57.634;18.310;2022-09-09T10:05:18;5.07;;;1.63;;
12385;SDS011;6257;57.634;18.310;2022-09-09T10:07:47;3.97;;;1.10;;
12385;SDS011;6257;57.634;18.310;2022-09-09T10:10:26;4.37;;;1.43;;
12385;SDS011;6257;57.634;18.310;2022-09-09T10:13:02;5.20;;;1.20;;
12385;SDS011;6257;57.634;18.310;2022-09-09T10:15:38;6.63;;;1.10;;
12385;SDS011;6257;57.634;18.310;2022-09-09T10:18:17;4.40;;;1.40;;
12385;SDS011;6257;57.634;18.310;2022-09-09T10:21:02;3.17;;;1.20;;
12385;SDS011;6257;57.634;18.310;2022-09-09T10:23:46;4.43;;;1.37;;
12385;SDS011;6257;57.634;18.310;2022-09-09T10:26:34;2.90;;;1.17;;
12385;SDS011;6257;57.634;18.310;2022-09-09T10:29:13;2.80;;;1.40;;
12385;SDS011;6257;57.634;18.310;2022-09-09T10:31:56;5.30;;;2.00;;
12385;SDS011;6257;57.634;18.310;2022-09-09T10:34:39;3.43;;;1.30;;
12385;SDS011;6257;57.634;18.310;2022-09-09T10:37:22;5.27;;;1.30;;
12385;SDS011;6257;57.634;18.310;2022-09-09T10:40:00;2.50;;;1.10;;
12385;SDS011;6257;57.634;18.310;2022-09-09T10:42:37;5.03;;;1.60;;
12385;SDS011;6257;57.634;18.310;2022-09-09T10:45:08;3.33;;;1.20;;
12385;SDS011;6257;57.634;18.310;2022-09-09T10:47:58;3.40;;;1.40;;
12385;SDS011;6257;57.634;18.310;2022-09-09T10:50:39;2.03;;;1.33;;
12385;SDS011;6257;57.634;18.310;2022-09-09T10:53:14;3.03;;;1.30;;
12385;SDS011;6257;57.634;18.310;2022-09-09T10:55:53;1.53;;;1.20;;
12385;SDS011;6257;57.634;18.310;2022-09-09T10:58:25;3.10;;;1.23;;
12385;SDS011;6257;57.634;18.310;2022-09-09T11:00:59;3.73;;;1.60;;
12385;SDS011;6257;57.634;18.310;2022-09-09T11:03:34;2.67;;;1.17;;
12385;SDS011;6257;57.634;18.310;2022-09-09T11:06:06;5.83;;;1.40;;
12385;SDS011;6257;57.634;18.310;2022-09-09T11:08:38;3.47;;;1.43;;
12385;SDS011;6257;57.634;18.310;2022-09-09T11:11:06;2.33;;;1.23;;
12385;SDS011;6257;57.634;18.310;2022-09-09T11:13:39;3.53;;;1.33;;
12385;SDS011;6257;57.634;18.310;2022-09-09T11:16:16;3.83;;;1.47;;
12385;SDS011;6257;57.634;18.310;2022-09-09T11:18:50;5.03;;;1.63;;
12385;SDS011;6257;57.634;18.310;2022-09-09T11:21:22;2.27;;;1.10;;
12385;SDS011;6257;57.634;18.310;2022-09-09T11:23:53;5.77;;;1.70;;
12385;SDS011;6257;57.634;18.310;2022-09-09T11:26:28;3.03;;;1.50;;
12385;SDS011;6257;57.634;18.310;2022-09-09T11:29:05;5.17;;;1.37;;
12385;SDS011;6257;57.634;18.310;2022-09-09T11:31:54;1.97;;;1.37;;
12385;SDS011;6257;57.634;18.310;2022-09-09T11:34:35;3.90;;;1.50;;
12385;SDS011;6257;57.634;18.310;2022-09-09T11:37:16;5.13;;;1.50;;
12385;SDS011;6257;57.634;18.310;2022-09-09T11:40:14;7.03;;;1.40;;
12385;SDS011;6257;57.634;18.310;2022-09-09T11:42:45;3.73;;;1.40;;
12385;SDS011;6257;57.634;18.310;2022-09-09T11:45:21;4.97;;;1.30;;
12385;SDS011;6257;57.634;18.310;2022-09-09T11:47:51;3.37;;;1.30;;
12385;SDS011;6257;57.634;18.310;2022-09-09T11:50:34;6.47;;;1.43;;
12385;SDS011;6257;57.634;18.310;2022-09-09T11:53:04;5.80;;;1.60;;
12385;SDS011;6257;57.634;18.310;2022-09-09T11:58:54;3.67;;;1.77;;
12385;SDS011;6257;57.634;18.310;2022-09-09T12:01:28;1.93;;;1.53;;
12385;SDS011;6257;57.634;18.310;2022-09-09T12:04:16;4.43;;;1.50;;
12385;SDS011;6257;57.634;18.310;2022-09-09T12:06:56;5.53;;;1.83;;
12385;SDS011;6257;57.634;18.310;2022-09-09T12:09:28;5.83;;;1.67;;
12385;SDS011;6257;57.634;18.310;2022-09-09T12:12:05;2.93;;;1.67;;
12385;SDS011;6257;57.634;18.310;2022-09-09T12:14:37;3.20;;;1.50;;
12385;SDS011;6257;57.634;18.310;2022-09-09T12:17:10;3.37;;;1.37;;
12385;SDS011;6257;57.634;18.310;2022-09-09T12:19:45;3.70;;;1.50;;
12385;SDS011;6257;57.634;18.310;2022-09-09T12:22:16;5.47;;;1.40;;
12385;SDS011;6257;57.634;18.310;2022-09-09T12:24:54;5.90;;;1.73;;
12385;SDS011;6257;57.634;18.310;2022-09-09T12:27:27;4.30;;;1.57;;
12385;SDS011;6257;57.634;18.310;2022-09-09T12:30:00;6.30;;;1.87;;
12385;SDS011;6257;57.634;18.310;2022-09-09T12:32:31;3.27;;;1.50;;
12385;SDS011;6257;57.634;18.310;2022-09-09T12:34:59;3.30;;;1.30;;
12385;SDS011;6257;57.634;18.310;2022-09-09T12:37:32;2.73;;;1.50;;
12385;SDS011;6257;57.634;18.310;2022-09-09T12:40:02;3.40;;;1.57;;
12385;SDS011;6257;57.634;18.310;2022-09-09T12:42:31;4.07;;;1.50;;
12385;SDS011;6257;57.634;18.310;2022-09-09T12:44:59;5.20;;;1.40;;
12385;SDS011;6257;57.634;18.310;2022-09-09T12:47:33;3.90;;;1.33;;
12385;SDS011;6257;57.634;18.310;2022-09-09T12:50:14;3.57;;;1.47;;
12385;SDS011;6257;57.634;18.310;2022-09-09T12:52:45;3.40;;;1.30;;
12385;SDS011;6257;57.634;18.310;2022-09-09T12:55:16;3.17;;;1.70;;
12385;SDS011;6257;57.634;18.310;2022-09-09T12:57:46;2.03;;;1.53;;
12385;SDS011;6257;57.634;18.310;2022-09-09T13:00:17;3.93;;;1.37;;
12385;SDS011;6257;57.634;18.310;2022-09-09T13:02:48;3.30;;;1.50;;
12385;SDS011;6257;57.634;18.310;2022-09-09T13:05:18;4.40;;;1.67;;
12385;SDS011;6257;57.634;18.310;2022-09-09T13:07:48;3.50;;;1.80;;
12385;SDS011;6257;57.634;18.310;2022-09-09T13:10:20;4.10;;;1.63;;
12385;SDS011;6257;57.634;18.310;2022-09-09T13:12:51;4.50;;;1.60;;
12385;SDS011;6257;57.634;18.310;2022-09-09T13:15:19;5.07;;;1.60;;
12385;SDS011;6257;57.634;18.310;2022-09-09T13:17:50;3.67;;;1.80;;
12385;SDS011;6257;57.634;18.310;2022-09-09T13:20:19;5.03;;;2.07;;
12385;SDS011;6257;57.634;18.310;2022-09-09T13:22:48;3.80;;;1.70;;
12385;SDS011;6257;57.634;18.310;2022-09-09T13:25:18;3.97;;;1.40;;
12385;SDS011;6257;57.634;18.310;2022-09-09T13:27:57;2.67;;;1.40;;
12385;SDS011;6257;57.634;18.310;2022-09-09T13:30:28;2.43;;;1.30;;
12385;SDS011;6257;57.634;18.310;2022-09-09T13:33:04;4.40;;;1.90;;
12385;SDS011;6257;57.634;18.310;2022-09-09T13:35:45;3.83;;;1.30;;
12385;SDS011;6257;57.634;18.310;2022-09-09T13:38:17;2.43;;;1.30;;
12385;SDS011;6257;57.634;18.310;2022-09-09T13:40:56;2.07;;;1.47;;
12385;SDS011;6257;57.634;18.310;2022-09-09T13:43:27;3.87;;;1.57;;
12385;SDS011;6257;57.634;18.310;2022-09-09T13:45:55;5.50;;;1.70;;
12385;SDS011;6257;57.634;18.310;2022-09-09T13:48:23;5.37;;;3.27;;
12385;SDS011;6257;57.634;18.310;2022-09-09T13:50:55;3.60;;;2.40;;
12385;SDS011;6257;57.634;18.310;2022-09-09T13:53:24;6.13;;;4.07;;
12385;SDS011;6257;57.634;18.310;2022-09-09T13:55:52;7.37;;;2.03;;
12385;SDS011;6257;57.634;18.310;2022-09-09T13:58:19;4.67;;;2.20;;
12385;SDS011;6257;57.634;18.310;2022-09-09T14:00:47;5.47;;;1.97;;
12385;SDS011;6257;57.634;18.310;2022-09-09T14:03:15;3.40;;;2.00;;
12385;SDS011;6257;57.634;18.310;2022-09-09T14:05:43;4.03;;;1.97;;
12385;SDS011;6257;57.634;18.310;2022-09-09T14:08:16;4.47;;;1.90;;
12385;SDS011;6257;57.634;18.310;2022-09-09T14:10:51;5.67;;;2.10;;
12385;SDS011;6257;57.634;18.310;2022-09-09T14:13:20;4.20;;;1.80;;
12385;SDS011;6257;57.634;18.310;2022-09-09T14:15:48;4.97;;;2.13;;
12385;SDS011;6257;57.634;18.310;2022-09-09T14:18:16;3.43;;;1.77;;
12385;SDS011;6257;57.634;18.310;2022-09-09T14:20:43;3.83;;;1.87;;
12385;SDS011;6257;57.634;18.310;2022-09-09T14:23:11;3.90;;;1.83;;
12385;SDS011;6257;57.634;18.310;2022-09-09T14:25:39;6.33;;;2.10;;
12385;SDS011;6257;57.634;18.310;2022-09-09T14:28:10;4.97;;;1.90;;
12385;SDS011;6257;57.634;18.310;2022-09-09T14:30:38;7.10;;;2.40;;
12385;SDS011;6257;57.634;18.310;2022-09-09T14:33:06;4.33;;;2.30;;
12385;SDS011;6257;57.634;18.310;2022-09-09T14:35:33;4.50;;;1.60;;
12385;SDS011;6257;57.634;18.310;2022-09-09T14:38:01;5.37;;;1.93;;
12385;SDS011;6257;57.634;18.310;2022-09-09T14:40:28;3.57;;;1.70;;
12385;SDS011;6257;57.634;18.310;2022-09-09T14:42:55;4.63;;;1.83;;
12385;SDS011;6257;57.634;18.310;2022-09-09T14:45:24;3.27;;;1.37;;
12385;SDS011;6257;57.634;18.310;2022-09-09T14:47:52;5.83;;;1.83;;
12385;SDS011;6257;57.634;18.310;2022-09-09T14:50:19;2.20;;;1.60;;
12385;SDS011;6257;57.634;18.310;2022-09-09T14:52:47;5.40;;;1.50;;
12385;SDS011;6257;57.634;18.310;2022-09-09T14:55:15;3.03;;;1.60;;
12385;SDS011;6257;57.634;18.310;2022-09-09T14:57:42;4.67;;;1.90;;
12385;SDS011;6257;57.634;18.310;2022-09-09T15:00:10;3.33;;;2.00;;
12385;SDS011;6257;57.634;18.310;2022-09-09T15:02:39;5.83;;;1.90;;
12385;SDS011;6257;57.634;18.310;2022-09-09T15:05:06;4.57;;;1.60;;
12385;SDS011;6257;57.634;18.310;2022-09-09T15:07:34;6.17;;;1.60;;
12385;SDS011;6257;57.634;18.310;2022-09-09T15:10:02;5.73;;;1.70;;
12385;SDS011;6257;57.634;18.310;2022-09-09T15:12:29;2.70;;;1.70;;
12385;SDS011;6257;57.634;18.310;2022-09-09T15:14:56;3.70;;;1.70;;